createdAt,value
2022-10-18T02:44:36.051Z,97.33
2022-10-18T02:51:18.938Z,97.33
2022-10-18T03:00:35.311Z,95.97
2022-10-18T03:01:55.007Z,95.76
2022-10-18T03:04:34.204Z,94.85
2022-10-18T03:05:44.988Z,95.06
2022-10-18T03:10:51.219Z,94.24
2022-10-18T03:11:56.080Z,93.54
2022-10-18T03:12:52.706Z,93.74
2022-10-18T03:13:51.271Z,93.54
2022-10-18T03:14:51.290Z,93.13
2022-10-18T03:15:50.910Z,93.43
2022-10-18T03:16:51.771Z,93.63
2022-10-18T03:17:55.235Z,93.43
2022-10-18T03:18:50.883Z,93.33
2022-10-18T03:19:59.271Z,93.54
2022-10-18T03:21:01.484Z,93.43
2022-10-18T03:21:59.919Z,93.43
2022-10-18T03:23:08.840Z,93.54
2022-10-18T03:23:51.234Z,93.43
2022-10-18T03:24:52.059Z,93.43
2022-10-18T03:25:50.934Z,93.43
2022-10-18T03:26:51.654Z,93.43
2022-10-18T03:27:51.101Z,93.63
2022-10-18T03:35:05.748Z,94.90
2022-10-18T03:36:08.546Z,94.49
2022-10-18T03:37:10.338Z,94.70
2022-10-18T03:38:14.102Z,94.79
2022-10-18T03:39:58.577Z,94.09
2022-10-18T03:40:19.717Z,94.14
2022-10-18T03:41:37.906Z,93.78
2022-10-18T03:43:06.802Z,93.78
2022-10-18T03:43:47.794Z,93.48
2022-10-18T03:45:34.881Z,93.38
2022-10-18T03:46:35.282Z,93.48
2022-10-18T03:47:49.659Z,93.43
2022-10-18T03:48:54.128Z,93.43
2022-10-18T03:49:47.379Z,93.38
2022-10-18T03:51:12.023Z,93.58
2022-10-18T03:53:23.151Z,93.78
2022-10-18T03:57:39.542Z,93.74
2022-10-18T03:58:41.593Z,93.74
2022-10-18T04:01:15.431Z,93.43
2022-10-18T04:02:26.188Z,93.43
2022-10-18T04:05:12.707Z,93.48
2022-10-18T04:06:19.621Z,92.83
2022-10-18T04:07:29.156Z,93.23
2022-10-18T04:08:35.192Z,93.84
2022-10-18T04:09:14.339Z,93.03
2022-10-18T04:10:12.259Z,92.72
2022-10-18T04:11:16.258Z,92.87
2022-10-18T04:12:13.588Z,92.87
2022-10-18T04:13:12.211Z,93.18
2022-10-18T04:14:12.610Z,93.68
2022-10-18T04:15:12.181Z,93.38
2022-10-18T04:16:14.768Z,93.58
2022-10-18T04:17:14.282Z,93.48
2022-10-18T04:18:14.006Z,93.68
2022-10-18T04:19:14.469Z,93.48
2022-10-18T04:20:41.849Z,93.58
2022-10-18T04:21:15.846Z,93.68
2022-10-18T04:22:14.387Z,93.68
2022-10-18T04:23:15.407Z,93.99
2022-10-18T04:24:13.768Z,94.19
2022-10-18T04:25:13.726Z,94.23
2022-10-18T04:26:13.752Z,94.09
2022-10-18T04:27:14.804Z,93.78
2022-10-18T04:28:14.947Z,93.99
2022-10-18T04:29:14.144Z,94.09
2022-10-18T04:30:13.897Z,94.23
2022-10-18T04:31:14.101Z,94.03
2022-10-18T04:32:14.539Z,94.19
2022-10-18T04:33:13.976Z,93.99
2022-10-18T04:35:16.315Z,93.88
2022-10-18T04:36:13.644Z,93.73
2022-10-18T04:37:29.698Z,93.88
2022-10-18T04:38:16.093Z,93.68
2022-10-18T04:39:13.170Z,94.39
2022-10-18T04:40:13.234Z,94.19
2022-10-18T04:41:13.028Z,94.29
2022-10-18T04:42:13.125Z,94.09
2022-10-18T04:43:13.035Z,94.29
2022-10-18T04:44:12.963Z,94.34
2022-10-18T04:45:12.969Z,94.49
2022-10-18T04:46:12.914Z,93.88
2022-10-18T04:47:12.969Z,94.49
2022-10-18T04:48:13.030Z,93.83
2022-10-18T04:49:12.934Z,94.29
2022-10-18T04:50:12.908Z,94.23
2022-10-18T04:51:12.779Z,94.23
2022-10-18T04:52:13.071Z,94.09
2022-10-18T04:53:12.951Z,94.23
2022-10-18T04:54:13.079Z,94.19
2022-10-18T04:55:12.794Z,94.39
2022-10-18T04:56:12.844Z,94.19
2022-10-18T04:57:12.758Z,94.03
2022-10-18T04:58:47.720Z,94.23
2022-10-18T04:59:13.116Z,93.93
2022-10-18T05:00:13.051Z,94.34
2022-10-18T05:01:13.460Z,94.54
2022-10-18T05:02:13.159Z,94.43
2022-10-18T05:03:12.893Z,94.13
2022-10-18T05:04:12.949Z,94.98
2022-10-18T05:05:14.077Z,94.98
2022-10-18T05:06:13.348Z,95.79
2022-10-18T05:07:12.646Z,95.70
2022-10-18T05:08:12.797Z,96.10
2022-10-18T05:09:12.667Z,96.20
2022-10-18T05:10:12.696Z,95.90
2022-10-18T05:11:13.166Z,96.10
2022-10-18T05:12:13.298Z,96.35
2022-10-18T05:13:12.762Z,96.30
2022-10-18T05:14:12.812Z,96.20
2022-10-18T05:15:12.600Z,96.04
2022-10-18T05:16:12.659Z,96.20
2022-10-18T05:17:12.623Z,95.90
2022-10-18T05:18:12.587Z,96.10
2022-10-18T05:19:12.582Z,95.70
2022-10-18T05:21:12.595Z,95.79
2022-10-18T05:22:12.570Z,95.59
2022-10-18T05:23:12.635Z,95.50
2022-10-18T05:24:12.634Z,95.50
2022-10-18T05:25:12.952Z,96.00
2022-10-18T05:26:12.584Z,96.10
2022-10-18T05:27:12.745Z,96.20
2022-10-18T05:28:38.061Z,96.20
2022-10-18T05:29:14.895Z,95.90
2022-10-18T05:30:12.608Z,96.41
2022-10-18T05:31:12.545Z,96.30
2022-10-18T05:32:12.519Z,96.55
2022-10-18T05:33:12.664Z,96.20
2022-10-18T05:34:12.789Z,96.45
2022-10-18T05:35:12.727Z,96.25
2022-10-18T05:36:12.760Z,96.35
2022-10-18T05:37:12.735Z,96.45
2022-10-18T05:38:12.638Z,97.06
2022-10-18T05:39:12.762Z,96.66
2022-10-18T05:40:12.775Z,96.75
2022-10-18T05:41:12.964Z,96.61
2022-10-18T05:42:13.742Z,96.51
2022-10-18T05:43:12.882Z,96.30
2022-10-18T05:44:12.992Z,96.41
2022-10-18T05:45:12.721Z,96.30
2022-10-18T05:46:15.288Z,96.20
2022-10-18T05:47:13.999Z,96.00
2022-10-18T05:48:12.726Z,96.20
2022-10-18T05:49:13.005Z,96.20
2022-10-18T05:50:12.503Z,96.20
2022-10-18T05:51:12.600Z,95.79
2022-10-18T05:52:12.793Z,95.79
2022-10-18T05:53:40.766Z,95.50
2022-10-18T05:54:14.545Z,95.35
2022-10-18T05:55:12.670Z,95.45
2022-10-18T05:56:15.239Z,95.45
2022-10-18T05:57:12.226Z,95.29
2022-10-18T05:58:12.410Z,95.29
2022-10-18T05:59:12.466Z,95.14
2022-10-18T06:00:12.124Z,95.50
2022-10-18T06:01:13.815Z,95.65
2022-10-18T06:02:12.328Z,95.35
2022-10-18T06:03:12.065Z,95.39
2022-10-18T06:04:12.217Z,95.04
2022-10-18T06:05:44.734Z,95.35
2022-10-18T06:06:13.414Z,95.09
2022-10-18T06:07:12.382Z,95.50
2022-10-18T06:08:12.432Z,95.39
2022-10-18T06:09:12.306Z,95.29
2022-10-18T06:10:12.195Z,95.50
2022-10-18T06:11:12.206Z,95.59
2022-10-18T06:12:12.040Z,95.50
2022-10-18T06:13:59.648Z,95.39
2022-10-18T06:14:12.395Z,95.50
2022-10-18T06:15:38.644Z,95.50
2022-10-18T06:16:44.607Z,95.50
2022-10-18T06:17:12.492Z,95.29
2022-10-18T06:18:12.459Z,95.09
2022-10-18T06:19:12.212Z,95.19
2022-10-18T06:20:12.208Z,95.50
2022-10-18T06:21:11.990Z,95.29
2022-10-18T06:22:11.876Z,95.39
2022-10-18T06:23:12.540Z,95.70
2022-10-18T06:24:12.275Z,95.19
2022-10-18T06:25:12.089Z,95.29
2022-10-18T06:26:11.956Z,95.70
2022-10-18T06:27:11.903Z,95.39
2022-10-18T06:28:12.323Z,95.59
2022-10-18T06:29:11.958Z,95.50
2022-10-18T06:30:11.926Z,95.50
2022-10-18T06:31:11.873Z,95.79
2022-10-18T06:32:11.870Z,96.20
2022-10-18T06:33:14.749Z,96.00
2022-10-18T06:34:14.512Z,96.10
2022-10-18T06:35:13.678Z,96.10
2022-10-18T06:36:12.785Z,96.00
2022-10-18T06:37:12.972Z,96.10
2022-10-18T06:38:11.728Z,96.00
2022-10-18T06:39:12.226Z,96.00
2022-10-18T06:40:11.893Z,95.90
2022-10-18T06:41:13.206Z,96.00
2022-10-18T06:42:11.844Z,95.79
2022-10-18T06:43:20.480Z,95.79
2022-10-18T06:44:13.794Z,96.00
2022-10-18T06:45:12.736Z,95.79
2022-10-18T06:46:12.400Z,95.45
2022-10-18T06:47:11.750Z,96.15
2022-10-18T06:48:11.765Z,95.59
2022-10-18T06:49:13.098Z,95.70
2022-10-18T06:50:13.745Z,96.20
2022-10-18T06:51:11.622Z,96.00
2022-10-18T06:52:11.875Z,95.90
2022-10-18T06:53:12.612Z,95.45
2022-10-18T06:54:18.181Z,95.86
2022-10-18T06:55:13.610Z,95.75
2022-10-18T06:56:11.613Z,95.45
2022-10-18T06:57:11.681Z,95.55
2022-10-18T06:58:11.564Z,95.25
2022-10-18T06:59:11.552Z,95.30
2022-10-18T07:00:13.082Z,95.25
2022-10-18T07:01:11.653Z,95.40
2022-10-18T07:02:11.566Z,95.00
2022-10-18T07:03:11.541Z,94.79
2022-10-18T07:04:11.670Z,94.79
2022-10-18T07:05:11.540Z,94.79
2022-10-18T07:06:12.537Z,94.49
2022-10-18T07:07:14.748Z,94.59
2022-10-18T07:08:11.562Z,95.40
2022-10-18T07:09:45.441Z,94.49
2022-10-18T07:10:13.101Z,94.70
2022-10-18T07:11:12.747Z,94.79
2022-10-18T07:12:11.455Z,94.75
2022-10-18T07:13:31.541Z,94.59
2022-10-18T07:14:16.332Z,94.49
2022-10-18T07:15:12.447Z,94.65
2022-10-18T07:16:14.274Z,94.65
2022-10-18T07:17:12.552Z,94.55
2022-10-18T07:18:11.456Z,94.24
2022-10-18T07:19:11.534Z,94.35
2022-10-18T07:20:11.512Z,94.35
2022-10-18T07:21:11.584Z,93.94
2022-10-18T07:22:11.602Z,94.24
2022-10-18T07:23:11.712Z,94.35
2022-10-18T07:24:11.592Z,93.78
2022-10-18T07:25:11.759Z,94.04
2022-10-18T07:26:11.410Z,94.04
2022-10-18T07:27:11.465Z,93.84
2022-10-18T07:28:11.514Z,93.84
2022-10-18T07:29:11.497Z,93.63
2022-10-18T07:30:11.437Z,93.74
2022-10-18T07:31:11.592Z,93.43
2022-10-18T07:32:11.588Z,93.43
2022-10-18T07:33:12.117Z,93.43
2022-10-18T07:34:12.079Z,93.43
2022-10-18T07:36:12.631Z,93.54
2022-10-18T07:37:12.334Z,93.54
2022-10-18T07:38:11.799Z,93.63
2022-10-18T07:39:12.178Z,93.74
2022-10-18T07:40:11.718Z,93.43
2022-10-18T07:41:12.024Z,93.43
2022-10-18T07:42:11.858Z,93.63
2022-10-18T07:43:12.297Z,93.63
2022-10-18T07:44:16.565Z,93.84
2022-10-18T07:45:12.745Z,93.54
2022-10-18T07:46:11.619Z,93.74
2022-10-18T07:47:12.217Z,93.54
2022-10-18T07:48:11.559Z,93.43
2022-10-18T07:49:12.351Z,93.54
2022-10-18T07:50:11.906Z,93.74
2022-10-18T07:51:11.114Z,93.74
2022-10-18T07:52:11.379Z,93.49
2022-10-18T07:53:11.694Z,93.49
2022-10-18T07:54:12.096Z,93.39
2022-10-18T07:55:11.404Z,93.39
2022-10-18T07:56:11.892Z,93.59
2022-10-18T07:57:12.142Z,93.49
2022-10-18T07:58:11.830Z,93.59
2022-10-18T07:59:11.476Z,93.08
2022-10-18T08:00:11.814Z,92.58
2022-10-18T08:01:12.237Z,92.48
2022-10-18T08:02:11.514Z,92.79
2022-10-18T08:03:11.654Z,93.54
2022-10-18T08:04:16.535Z,93.84
2022-10-18T08:05:11.436Z,93.63
2022-10-18T08:06:11.640Z,93.70
2022-10-18T08:07:12.307Z,93.49
2022-10-18T08:08:11.679Z,93.90
2022-10-18T08:09:12.319Z,93.90
2022-10-18T08:10:11.632Z,93.70
2022-10-18T08:11:11.933Z,93.39
2022-10-18T08:12:11.887Z,93.39
2022-10-18T08:13:11.943Z,93.49
2022-10-18T08:14:12.171Z,93.49
2022-10-18T08:15:11.847Z,93.59
2022-10-18T08:16:11.985Z,93.59
2022-10-18T08:17:11.282Z,92.68
2022-10-18T08:18:11.353Z,92.44
2022-10-18T08:19:11.468Z,92.58
2022-10-18T08:20:26.181Z,92.44
2022-10-18T08:21:13.481Z,92.54
2022-10-18T08:22:11.258Z,92.44
2022-10-18T08:23:11.497Z,92.54
2022-10-18T08:24:11.137Z,92.84
2022-10-18T08:25:11.694Z,92.74
2022-10-18T08:26:44.787Z,92.64
2022-10-18T08:27:13.105Z,92.74
2022-10-18T08:28:11.599Z,93.55
2022-10-18T08:29:22.997Z,93.35
2022-10-18T08:30:13.424Z,93.55
2022-10-18T08:31:11.909Z,92.84
2022-10-18T08:32:11.357Z,92.74
2022-10-18T08:33:12.300Z,92.24
2022-10-18T08:34:12.958Z,92.64
2022-10-18T08:35:11.782Z,92.54
2022-10-18T08:36:11.664Z,92.54
2022-10-18T08:37:11.626Z,92.54
2022-10-18T08:38:15.173Z,92.54
2022-10-18T08:39:12.451Z,92.54
2022-10-18T08:40:11.751Z,92.54
2022-10-18T08:41:11.323Z,92.64
2022-10-18T08:42:11.903Z,92.79
2022-10-18T08:43:11.094Z,92.64
2022-10-18T08:44:10.678Z,92.33
2022-10-18T08:45:12.975Z,92.33
2022-10-18T08:46:12.972Z,92.84
2022-10-18T08:47:10.854Z,92.54
2022-10-18T08:48:11.053Z,92.64
2022-10-18T08:49:10.934Z,92.74
2022-10-18T08:50:10.905Z,92.74
2022-10-18T08:51:10.887Z,92.54
2022-10-18T08:52:10.805Z,92.58
2022-10-18T08:53:10.991Z,92.13
2022-10-18T08:54:11.051Z,92.54
2022-10-18T08:55:11.689Z,92.54
2022-10-18T08:56:10.943Z,92.64
2022-10-18T08:57:11.501Z,92.64
2022-10-18T08:58:10.998Z,92.44
2022-10-18T08:59:11.072Z,92.24
2022-10-18T09:00:10.994Z,92.54
2022-10-18T09:01:11.002Z,92.54
2022-10-18T09:02:12.012Z,92.13
2022-10-18T09:03:11.012Z,91.99
2022-10-18T09:04:11.446Z,91.93
2022-10-18T09:05:11.233Z,91.89
2022-10-18T09:06:12.170Z,91.89
2022-10-18T09:07:11.192Z,92.13
2022-10-18T09:08:10.740Z,92.40
2022-10-18T09:09:11.761Z,92.29
2022-10-18T09:10:10.782Z,92.40
2022-10-18T09:11:11.830Z,92.09
2022-10-18T09:12:11.102Z,91.99
2022-10-18T09:13:11.229Z,91.85
2022-10-18T09:14:11.773Z,91.78
2022-10-18T09:15:10.994Z,91.89
2022-10-18T09:16:10.967Z,91.69
2022-10-18T09:17:15.068Z,91.58
2022-10-18T09:18:11.824Z,91.64
2022-10-18T09:19:11.113Z,91.58
2022-10-18T09:20:10.834Z,91.28
2022-10-18T09:21:11.382Z,91.38
2022-10-18T09:22:11.232Z,91.28
2022-10-18T09:23:10.585Z,91.18
2022-10-18T09:24:10.651Z,91.03
2022-10-18T09:25:10.455Z,90.94
2022-10-18T09:26:11.053Z,91.14
2022-10-18T09:27:10.359Z,90.94
2022-10-18T09:28:10.911Z,91.03
2022-10-18T09:29:10.824Z,91.03
2022-10-18T09:30:10.803Z,91.14
2022-10-18T09:31:11.284Z,91.39
2022-10-18T09:32:10.849Z,90.69
2022-10-18T09:33:11.020Z,91.24
2022-10-18T09:34:10.624Z,91.24
2022-10-18T09:35:11.331Z,91.19
2022-10-18T09:36:10.756Z,90.69
2022-10-18T09:37:10.285Z,90.39
2022-10-18T09:38:10.220Z,90.28
2022-10-18T09:39:10.359Z,90.83
2022-10-18T09:40:12.186Z,91.19
2022-10-18T09:41:10.549Z,90.99
2022-10-18T09:42:10.309Z,90.99
2022-10-18T09:43:11.327Z,91.09
2022-10-18T09:44:10.140Z,90.24
2022-10-18T09:45:10.937Z,89.88
2022-10-18T09:46:10.413Z,89.84
2022-10-18T09:47:13.368Z,90.14
2022-10-18T09:48:12.548Z,90.04
2022-10-18T09:49:12.970Z,91.05
2022-10-18T09:50:12.685Z,90.55
2022-10-18T09:51:10.796Z,90.24
2022-10-18T09:52:10.895Z,90.04
2022-10-18T09:53:10.023Z,90.65
2022-10-18T09:54:10.392Z,90.34
2022-10-18T09:55:10.433Z,91.05
2022-10-18T09:56:10.532Z,91.21
2022-10-18T09:57:10.595Z,89.74
2022-10-18T09:58:10.219Z,90.41
2022-10-18T09:59:10.614Z,89.54
2022-10-18T10:00:10.038Z,90.04
2022-10-18T10:01:11.989Z,90.14
2022-10-18T10:02:10.769Z,89.23
2022-10-18T10:03:11.535Z,89.74
2022-10-18T10:04:10.261Z,89.64
2022-10-18T10:06:09.752Z,90.24
2022-10-18T10:07:10.317Z,89.64
2022-10-18T10:08:10.028Z,89.23
2022-10-18T10:09:11.174Z,89.34
2022-10-18T10:10:09.735Z,89.03
2022-10-18T10:11:13.114Z,89.23
2022-10-18T10:12:10.065Z,89.68
2022-10-18T10:13:10.763Z,89.23
2022-10-18T10:14:11.103Z,89.03
2022-10-18T10:15:10.177Z,89.34
2022-10-18T10:16:33.113Z,89.03
2022-10-18T10:17:17.002Z,89.23
2022-10-18T10:18:40.382Z,89.13
2022-10-18T10:20:28.189Z,88.93
2022-10-18T10:21:31.840Z,88.89
2022-10-18T10:21:35.859Z,88.59
2022-10-18T10:25:19.875Z,88.08
2022-10-18T10:28:50.628Z,87.48
2022-10-18T10:30:49.227Z,87.23
2022-10-18T10:31:50.413Z,87.13
2022-10-18T10:34:15.886Z,87.94
2022-10-18T10:34:58.928Z,87.43
2022-10-18T10:35:35.463Z,87.19
2022-10-18T10:38:13.012Z,87.19
2022-10-18T10:38:47.019Z,84.77
2022-10-18T10:39:32.508Z,85.44
2022-10-18T10:41:57.689Z,85.74
2022-10-18T10:46:47.501Z,85.94
2022-10-18T10:47:51.715Z,86.04
2022-10-18T10:48:47.643Z,84.83
2022-10-18T10:49:46.782Z,85.14
2022-10-18T10:50:49.914Z,85.40
2022-10-18T10:53:41.340Z,85.60
2022-10-18T10:53:50.042Z,84.39
2022-10-18T10:56:09.507Z,83.93
2022-10-18T10:57:07.177Z,84.83
2022-10-18T10:58:06.412Z,85.34
2022-10-18T10:59:04.717Z,85.64
2022-10-18T11:00:05.740Z,85.90
2022-10-18T11:01:10.496Z,85.64
2022-10-18T11:02:36.630Z,85.30
2022-10-18T11:03:17.095Z,85.10
2022-10-18T11:04:09.946Z,84.74
2022-10-18T11:05:22.096Z,84.94
2022-10-18T11:06:09.254Z,84.94
2022-10-18T11:07:04.637Z,83.69
2022-10-18T11:08:04.423Z,84.43
2022-10-18T11:09:04.377Z,85.10
2022-10-18T11:10:05.912Z,84.89
2022-10-18T11:11:04.959Z,84.39
2022-10-18T11:12:04.270Z,83.59
2022-10-18T11:13:14.296Z,83.99
2022-10-18T11:16:18.064Z,83.84
2022-10-18T11:17:17.580Z,83.51
2022-10-18T11:18:17.579Z,83.04
2022-10-18T11:19:19.135Z,84.21
2022-10-18T11:20:20.904Z,82.52
2022-10-18T11:21:18.766Z,81.88
2022-10-18T11:22:18.587Z,81.34
2022-10-18T11:23:19.485Z,81.74
2022-10-18T11:24:24.152Z,80.83
2022-10-18T11:25:38.048Z,80.94
2022-10-18T11:26:22.768Z,79.43
2022-10-18T11:27:19.742Z,79.67
2022-10-18T11:28:18.745Z,80.68
2022-10-18T11:29:18.508Z,80.77
2022-10-18T11:30:18.471Z,81.58
2022-10-18T11:31:18.586Z,81.52
2022-10-18T11:32:18.607Z,80.91
2022-10-18T11:33:18.934Z,81.82
2022-10-18T11:34:18.705Z,82.22
2022-10-18T11:35:19.525Z,82.06
2022-10-18T11:36:18.444Z,81.35
2022-10-18T11:37:37.516Z,80.29
2022-10-18T11:38:19.445Z,80.58
2022-10-18T11:39:19.243Z,80.69
2022-10-18T11:40:18.422Z,81.70
2022-10-18T11:41:18.377Z,81.59
2022-10-18T11:42:18.304Z,81.90
2022-10-18T11:43:18.357Z,83.14
2022-10-18T11:44:18.460Z,83.20
2022-10-18T11:45:18.373Z,84.71
2022-10-18T11:46:18.278Z,83.73
2022-10-18T11:47:18.301Z,80.33
2022-10-18T11:48:18.225Z,80.60
2022-10-18T11:49:19.355Z,78.94
2022-10-18T11:50:18.378Z,78.18
2022-10-18T11:51:18.307Z,77.56
2022-10-18T11:52:18.420Z,73.83
2022-10-18T11:53:18.173Z,70.56
2022-10-18T11:54:18.882Z,66.77
2022-10-18T11:55:18.180Z,65.77
2022-10-18T11:56:18.300Z,64.78
2022-10-18T11:57:18.123Z,64.22
2022-10-18T11:58:18.391Z,63.83
2022-10-18T11:59:18.415Z,62.21
2022-10-18T12:00:18.451Z,60.77
2022-10-18T12:01:19.167Z,60.34
2022-10-18T12:02:18.506Z,57.93
2022-10-18T12:03:18.550Z,58.40
2022-10-18T12:04:18.332Z,56.37
2022-10-18T12:05:23.476Z,56.46
2022-10-18T12:06:20.063Z,56.14
2022-10-18T12:07:21.166Z,53.47
2022-10-18T12:08:20.122Z,54.73
2022-10-18T12:09:18.002Z,54.34
2022-10-18T12:10:26.175Z,53.95
2022-10-18T12:11:19.976Z,55.61
2022-10-18T12:12:17.937Z,57.08
2022-10-18T12:13:18.000Z,58.65
2022-10-18T12:14:18.103Z,62.42
2022-10-18T12:15:18.451Z,64.87
2022-10-18T12:16:18.274Z,66.93
2022-10-18T12:17:41.829Z,67.07
2022-10-18T12:18:20.135Z,69.09
2022-10-18T12:19:20.813Z,68.82
2022-10-18T12:20:19.885Z,67.07
2022-10-18T12:22:20.201Z,65.57
2022-10-18T12:25:40.233Z,65.41
2022-10-18T12:26:42.620Z,64.64
2022-10-18T12:27:44.919Z,66.27
2022-10-18T12:28:50.581Z,66.80
2022-10-18T12:29:45.309Z,66.66
2022-10-18T12:33:56.713Z,71.92
2022-10-18T12:34:59.269Z,72.26
2022-10-18T12:35:58.627Z,72.60
2022-10-18T12:36:58.687Z,72.39
2022-10-18T12:37:58.546Z,72.73
2022-10-18T12:38:59.217Z,71.73
2022-10-18T12:40:09.816Z,73.36
2022-10-18T12:41:00.571Z,73.97
2022-10-18T12:41:59.332Z,74.30
2022-10-18T12:42:59.342Z,74.07
2022-10-18T12:43:59.919Z,73.60
2022-10-18T12:44:59.758Z,75.01
2022-10-18T12:45:59.157Z,75.58
2022-10-18T12:46:59.902Z,75.88
2022-10-18T12:47:59.729Z,75.48
2022-10-18T12:49:01.362Z,76.12
2022-10-18T12:51:51.922Z,76.76
2022-10-18T12:52:51.740Z,76.89
2022-10-18T12:53:52.177Z,75.50
2022-10-18T12:54:51.592Z,72.86
2022-10-18T12:55:55.962Z,71.52
2022-10-18T12:57:46.640Z,69.89
2022-10-18T12:59:12.230Z,69.69
2022-10-18T12:59:39.662Z,68.89
2022-10-18T13:00:47.232Z,68.79
2022-10-18T13:02:20.551Z,68.63
2022-10-18T13:03:47.339Z,68.96
2022-10-18T13:04:36.341Z,69.86
2022-10-18T13:04:56.593Z,69.66
2022-10-18T13:05:56.410Z,71.69
2022-10-18T13:06:56.911Z,72.26
2022-10-18T13:07:55.135Z,69.62
2022-10-18T13:09:07.751Z,69.09
2022-10-18T13:10:32.410Z,68.16
2022-10-18T13:11:13.445Z,69.59
2022-10-18T13:12:10.469Z,68.89
2022-10-18T13:12:57.931Z,66.97
2022-10-18T13:13:55.422Z,64.12
2022-10-18T13:15:05.964Z,61.07
2022-10-18T13:16:00.601Z,61.53
2022-10-18T13:18:39.415Z,61.71
2022-10-18T13:19:02.373Z,64.43
2022-10-18T13:22:25.057Z,68.43
2022-10-18T13:22:54.948Z,69.26
2022-10-18T13:23:53.133Z,71.30
2022-10-18T13:26:07.424Z,71.69
2022-10-18T13:28:12.120Z,71.63
2022-10-18T13:29:12.766Z,73.86
2022-10-18T13:30:13.347Z,73.77
2022-10-18T13:31:38.344Z,74.37
2022-10-18T13:32:14.861Z,75.10
2022-10-18T13:33:35.368Z,74.40
2022-10-18T13:35:18.474Z,74.01
2022-10-18T13:36:08.358Z,74.10
2022-10-18T13:37:24.702Z,74.14
2022-10-18T13:39:28.583Z,75.84
2022-10-18T13:39:51.274Z,75.38
2022-10-18T13:40:32.119Z,75.68
2022-10-18T13:41:34.398Z,75.78
2022-10-18T13:42:39.602Z,76.08
2022-10-18T13:43:34.812Z,75.42
2022-10-18T13:45:22.607Z,76.21
2022-10-18T13:45:46.054Z,76.21
2022-10-18T13:46:34.278Z,76.32
2022-10-18T13:47:37.138Z,76.62
2022-10-18T13:48:33.126Z,74.37
2022-10-18T13:49:32.455Z,75.62
2022-10-18T13:50:39.857Z,75.95
2022-10-18T13:51:31.901Z,76.59
2022-10-18T13:52:36.967Z,76.69
2022-10-18T13:54:30.464Z,77.29
2022-10-18T13:55:27.999Z,77.80
2022-10-18T13:55:40.450Z,77.83
2022-10-18T13:57:04.569Z,78.78
2022-10-18T13:57:37.741Z,78.58
2022-10-18T13:58:41.085Z,79.54
2022-10-18T13:59:44.721Z,79.54
2022-10-18T14:00:59.595Z,79.64
2022-10-18T14:02:09.077Z,79.91
2022-10-18T14:02:50.899Z,78.70
2022-10-18T14:03:56.742Z,77.50
2022-10-18T14:04:42.530Z,76.96
2022-10-18T14:05:37.714Z,76.59
2022-10-18T14:06:35.378Z,76.79
2022-10-18T14:07:35.375Z,76.59
2022-10-18T14:08:35.841Z,76.09
2022-10-18T14:09:52.391Z,75.95
2022-10-18T14:10:50.212Z,76.25
2022-10-18T14:11:37.174Z,76.15
2022-10-18T14:12:37.140Z,76.05
2022-10-18T14:13:35.378Z,76.15
2022-10-18T14:14:35.783Z,76.05
2022-10-18T14:15:35.090Z,75.75
2022-10-18T14:16:36.791Z,76.15
2022-10-18T14:17:36.064Z,75.65
2022-10-18T14:18:35.300Z,75.95
2022-10-18T14:19:34.996Z,76.86
2022-10-18T14:20:48.976Z,76.09
2022-10-18T14:21:36.396Z,76.45
2022-10-18T14:22:35.295Z,76.49
2022-10-18T14:23:35.224Z,75.95
2022-10-18T14:24:35.108Z,75.85
2022-10-18T14:25:35.619Z,75.75
2022-10-18T14:26:35.235Z,75.71
2022-10-18T14:27:35.121Z,76.35
2022-10-18T14:28:55.136Z,76.76
2022-10-18T14:29:37.176Z,76.76
2022-10-18T14:30:36.409Z,76.32
2022-10-18T14:31:35.169Z,75.55
2022-10-18T14:32:35.007Z,75.55
2022-10-18T14:33:34.912Z,76.12
2022-10-18T14:34:34.975Z,75.75
2022-10-18T14:35:34.924Z,74.44
2022-10-18T14:36:34.994Z,75.89
2022-10-18T14:37:35.215Z,76.39
2022-10-18T14:38:34.921Z,75.99
2022-10-18T14:39:34.834Z,76.49
2022-10-18T14:40:34.903Z,76.23
2022-10-18T14:41:35.071Z,76.83
2022-10-18T14:42:34.896Z,77.03
2022-10-18T14:43:34.822Z,77.03
2022-10-18T14:44:34.940Z,77.67
2022-10-18T14:45:34.737Z,77.47
2022-10-18T14:46:34.770Z,77.77
2022-10-18T14:47:35.978Z,78.17
2022-10-18T14:48:36.252Z,77.70
2022-10-18T14:49:34.726Z,78.07
2022-10-18T14:50:34.769Z,78.07
2022-10-18T14:51:34.678Z,77.97
2022-10-18T14:52:35.785Z,77.27
2022-10-18T14:53:35.644Z,78.38
2022-10-18T14:54:35.262Z,77.47
2022-10-18T14:55:34.664Z,77.81
2022-10-18T14:56:34.683Z,77.91
2022-10-18T14:57:34.912Z,78.17
2022-10-18T14:58:34.629Z,77.57
2022-10-18T14:59:34.682Z,77.67
2022-10-18T15:00:34.701Z,77.57
2022-10-18T15:01:34.631Z,77.77
2022-10-18T15:02:34.928Z,77.67
2022-10-18T15:03:34.667Z,77.61
2022-10-18T15:04:34.911Z,77.61
2022-10-18T15:05:34.548Z,77.70
2022-10-18T15:06:36.684Z,77.81
2022-10-18T15:07:34.828Z,77.84
2022-10-18T15:08:34.499Z,78.15
2022-10-18T15:09:34.542Z,78.05
2022-10-18T15:10:34.493Z,78.25
2022-10-18T15:11:34.553Z,78.79
2022-10-18T15:12:41.069Z,78.19
2022-10-18T15:13:35.568Z,78.08
2022-10-18T15:14:34.459Z,78.63
2022-10-18T15:15:34.438Z,78.49
2022-10-18T15:16:34.383Z,78.12
2022-10-18T15:17:34.456Z,78.72
2022-10-18T15:18:34.449Z,78.83
2022-10-18T15:19:34.481Z,78.92
2022-10-18T15:20:34.499Z,78.92
2022-10-18T15:21:34.332Z,79.06
2022-10-18T15:22:34.418Z,79.23
2022-10-18T15:23:34.518Z,79.67
2022-10-18T15:24:34.406Z,80.27
2022-10-18T15:25:34.392Z,80.07
2022-10-18T15:26:34.371Z,79.87
2022-10-18T15:27:34.712Z,79.67
2022-10-18T15:28:34.456Z,79.47
2022-10-18T15:29:34.437Z,78.86
2022-10-18T15:30:34.756Z,79.27
2022-10-18T15:31:34.419Z,79.61
2022-10-18T15:32:34.908Z,79.91
2022-10-18T15:33:34.223Z,79.91
2022-10-18T15:34:34.316Z,79.50
2022-10-18T15:35:35.731Z,80.51
2022-10-18T15:36:35.332Z,80.31
2022-10-18T15:37:34.425Z,80.62
2022-10-18T15:38:34.223Z,80.72
2022-10-18T15:39:34.219Z,80.51
2022-10-18T15:40:34.202Z,80.68
2022-10-18T15:41:34.163Z,81.02
2022-10-18T15:42:34.137Z,81.22
2022-10-18T15:43:34.226Z,81.02
2022-10-18T15:44:34.239Z,80.92
2022-10-18T15:45:34.451Z,82.33
2022-10-18T15:46:34.205Z,81.93
2022-10-18T15:47:34.516Z,82.43
2022-10-18T15:48:34.260Z,82.13
2022-10-18T15:49:34.091Z,81.93
2022-10-18T15:50:34.734Z,81.93
2022-10-18T15:51:34.114Z,81.73
2022-10-18T15:52:37.784Z,81.87
2022-10-18T15:53:35.172Z,81.93
2022-10-18T15:54:34.089Z,82.17
2022-10-18T15:55:34.238Z,82.53
2022-10-18T15:56:34.024Z,82.64
2022-10-18T15:57:34.301Z,82.67
2022-10-18T15:58:34.135Z,82.67
2022-10-18T15:59:34.035Z,82.57
2022-10-18T16:00:34.674Z,82.87
2022-10-18T16:01:34.161Z,83.18
2022-10-18T16:02:34.038Z,82.41
2022-10-18T16:03:34.760Z,81.40
2022-10-18T16:04:34.018Z,82.10
2022-10-18T16:05:34.185Z,81.90
2022-10-18T16:06:34.094Z,81.90
2022-10-18T16:07:36.209Z,82.24
2022-10-18T16:08:34.052Z,82.55
2022-10-18T16:09:34.428Z,81.94
2022-10-18T16:10:34.570Z,82.04
2022-10-18T16:11:33.971Z,81.74
2022-10-18T16:12:34.517Z,81.84
2022-10-18T16:13:33.970Z,81.48
2022-10-18T16:14:34.599Z,80.87
2022-10-18T16:15:33.932Z,81.54
2022-10-18T16:16:33.894Z,81.17
2022-10-18T16:17:35.367Z,81.17
2022-10-18T16:18:34.919Z,81.27
2022-10-18T16:19:34.061Z,81.48
2022-10-18T16:20:34.027Z,81.37
2022-10-18T16:21:34.032Z,80.87
2022-10-18T16:22:36.276Z,80.87
2022-10-18T16:23:33.791Z,80.87
2022-10-18T16:24:34.701Z,81.88
2022-10-18T16:25:33.765Z,82.18
2022-10-18T16:26:33.855Z,81.88
2022-10-18T16:27:33.779Z,82.22
2022-10-18T16:28:33.815Z,82.42
2022-10-18T16:29:33.733Z,82.42
2022-10-18T16:30:33.767Z,82.12
2022-10-18T16:31:33.815Z,82.53
2022-10-18T16:32:33.914Z,82.32
2022-10-18T16:33:33.713Z,82.46
2022-10-18T16:34:33.669Z,82.97
2022-10-18T16:35:33.663Z,83.47
2022-10-18T16:36:34.270Z,83.47
2022-10-18T16:37:33.658Z,83.47
2022-10-18T16:38:35.237Z,83.27
2022-10-18T16:39:33.931Z,82.90
2022-10-18T16:40:35.468Z,83.11
2022-10-18T16:41:33.610Z,82.90
2022-10-18T16:42:33.773Z,83.31
2022-10-18T16:43:33.701Z,83.01
2022-10-18T16:44:33.588Z,83.82
2022-10-18T16:45:33.598Z,83.51
2022-10-18T16:46:33.612Z,83.61
2022-10-18T16:47:33.468Z,84.83
2022-10-18T16:48:34.373Z,84.56
2022-10-18T16:49:33.496Z,84.87
2022-10-18T16:50:35.397Z,85.27
2022-10-18T16:51:33.501Z,84.77